Time;durP1;ratioP1;P1;durP2;ratioP2;P2;SDS_P1;SDS_P2;PMS_P1;PMS_P2;Temp;Humidity;BMP_temperature;BMP_pressure;BME280_temperature;BME280_humidity;BME280_pressure;Samples;Min_cycle;Max_cycle;Signal;HPM_P1;HPM_P2
2023/12/09 00:01:04;;;;;;;12.93;5.33;;;7.40;99.90;;;9.27;66.67;97409.13;5029695;28;20410;-49
2023/12/09 00:03:32;;;;;;;8.90;5.03;;;7.40;99.90;;;9.23;66.69;97397.97;5031130;28;20033;-54
2023/12/09 00:05:59;;;;;;;9.90;4.73;;;7.40;99.90;;;9.22;66.58;97385.66;5030960;28;20033;-53
2023/12/09 00:08:27;;;;;;;9.07;5.60;;;7.30;99.90;;;9.21;66.81;97401.78;5013383;28;20413;-52
2023/12/09 00:10:55;;;;;;;10.33;6.17;;;7.30;99.90;;;9.20;66.62;97398.28;5029993;28;20045;-53
2023/12/09 00:13:22;;;;;;;10.20;6.50;;;7.30;99.90;;;9.20;66.54;97402.75;5031010;28;20445;-53
2023/12/09 00:15:50;;;;;;;9.97;5.77;;;7.30;99.90;;;9.19;66.57;97404.59;5030756;28;20050;-54
2023/12/09 00:18:18;;;;;;;12.27;5.97;;;7.30;99.90;;;9.17;66.79;97419.00;5031033;28;20049;-53
2023/12/09 00:20:45;;;;;;;11.97;6.67;;;7.20;99.90;;;9.19;66.51;97415.22;5030150;28;20441;-51
2023/12/09 00:23:13;;;;;;;10.47;7.03;;;7.30;99.90;;;9.17;66.73;97416.34;5029747;28;20527;-54
2023/12/09 00:25:41;;;;;;;12.80;7.10;;;7.30;99.90;;;9.16;66.98;97420.00;5030501;28;20052;-51
2023/12/09 00:28:08;;;;;;;10.43;5.80;;;7.30;99.90;;;9.13;66.75;97415.00;5030974;28;20397;-53
2023/12/09 00:30:36;;;;;;;10.60;7.17;;;7.20;99.90;;;9.11;66.72;97417.84;5030784;28;20033;-53
2023/12/09 00:33:04;;;;;;;12.27;6.63;;;7.20;99.90;;;9.09;66.53;97414.47;5030843;28;20042;-53
2023/12/09 00:35:31;;;;;;;13.53;7.87;;;7.10;99.90;;;9.10;66.72;97412.69;5030497;28;20128;-52
2023/12/09 00:37:59;;;;;;;11.80;6.00;;;7.10;99.90;;;9.09;66.59;97411.00;5030799;28;20440;-52
2023/12/09 00:40:27;;;;;;;13.37;7.80;;;7.10;99.90;;;9.07;66.58;97409.34;5012786;28;20054;-54
2023/12/09 00:42:54;;;;;;;11.47;6.57;;;7.10;99.90;;;9.06;66.51;97412.97;5030705;28;20038;-53
2023/12/09 00:45:22;;;;;;;19.80;8.13;;;7.10;99.90;;;9.02;66.55;97406.31;5030479;28;20041;-53
2023/12/09 00:47:49;;;;;;;19.80;11.67;;;7.00;99.90;;;9.02;66.71;97411.63;5030745;28;20049;-53
2023/12/09 00:50:17;;;;;;;15.30;7.30;;;7.00;99.90;;;9.01;66.58;97409.13;5030695;28;20041;-54
2023/12/09 00:52:45;;;;;;;21.47;10.80;;;7.00;99.90;;;8.99;66.40;97414.59;5030532;28;20052;-51
2023/12/09 00:55:12;;;;;;;26.20;11.50;;;7.00;99.90;;;8.98;66.70;97422.72;5030453;28;20539;-53
2023/12/09 00:57:40;;;;;;;24.07;10.13;;;7.00;99.90;;;8.96;66.53;97409.59;5022364;28;20041;-52
2023/12/09 01:00:08;;;;;;;29.37;14.63;;;7.00;99.90;;;8.98;66.75;97420.06;5030514;28;20050;-52
2023/12/09 01:02:38;;;;;;;34.87;16.33;;;7.00;99.90;;;8.98;66.78;97425.38;5030344;28;20034;-54
2023/12/09 01:05:06;;;;;;;29.53;13.33;;;7.00;99.90;;;8.98;66.70;97428.03;5033278;28;20402;-51
2023/12/09 01:07:34;;;;;;;17.20;10.67;;;7.00;99.90;;;8.98;66.77;97428.03;5033897;28;20485;-53
2023/12/09 01:10:03;;;;;;;17.07;9.03;;;7.00;99.90;;;8.98;66.50;97434.19;5034389;28;20038;-51
2023/12/09 01:12:31;;;;;;;13.20;6.50;;;7.00;99.90;;;8.99;66.66;97441.13;5034174;28;20049;-52
2023/12/09 01:14:58;;;;;;;45.57;21.97;;;7.00;99.90;;;8.99;66.74;97433.16;5033051;28;20045;-53
2023/12/09 01:17:26;;;;;;;27.53;13.07;;;7.00;99.90;;;9.01;66.73;97433.84;5031501;28;20045;-53
2023/12/09 01:19:54;;;;;;;15.13;7.60;;;7.10;99.90;;;9.03;66.47;97434.56;5034345;28;20041;-51
2023/12/09 01:22:22;;;;;;;12.97;5.53;;;7.10;99.90;;;9.05;66.63;97442.34;5032842;28;20041;-54
2023/12/09 01:24:50;;;;;;;8.87;4.70;;;7.20;99.90;;;9.05;66.61;97443.19;5034206;28;20511;-51
2023/12/09 01:27:17;;;;;;;10.43;5.20;;;7.20;99.90;;;9.07;66.77;97443.88;5033743;28;20266;-51
2023/12/09 01:29:45;;;;;;;6.87;4.23;;;7.20;99.90;;;9.06;66.72;97446.69;5034083;28;20353;-54
2023/12/09 01:32:13;;;;;;;6.97;3.80;;;7.20;99.90;;;9.07;66.72;97445.66;5033875;28;20406;-53
2023/12/09 01:34:40;;;;;;;7.47;4.03;;;7.20;99.90;;;9.07;66.64;97445.66;5032758;28;20050;-52
2023/12/09 01:37:08;;;;;;;6.27;3.40;;;7.20;99.90;;;9.09;66.66;97449.00;5033698;28;20060;-61
2023/12/09 01:39:38;;;;;;;10.67;4.17;;;7.20;99.90;;;9.10;66.37;97461.31;5033785;28;20046;-61
2023/12/09 01:42:08;;;;;;;9.40;4.30;;;7.20;99.90;;;9.12;66.23;97469.13;5033564;28;20058;-60
2023/12/09 01:44:35;;;;;;;5.80;3.77;;;7.20;99.90;;;9.13;66.16;97463.66;5033518;28;20049;-61
2023/12/09 01:47:03;;;;;;;7.73;4.20;;;7.30;99.90;;;9.13;66.26;97476.94;5033235;28;20041;-61
2023/12/09 01:49:31;;;;;;;8.63;3.97;;;7.30;99.90;;;9.14;66.03;97475.09;5033536;28;20045;-61
2023/12/09 01:52:01;;;;;;;8.43;4.07;;;7.30;99.90;;;9.12;66.03;97466.47;5032631;28;20049;-61
2023/12/09 01:54:29;;;;;;;9.43;4.00;;;7.30;99.90;;;9.12;66.06;97475.25;5032314;28;20049;-61
2023/12/09 01:56:57;;;;;;;8.63;4.37;;;7.20;99.90;;;9.11;65.99;97476.25;5033399;28;20116;-61
2023/12/09 01:59:25;;;;;;;8.80;4.73;;;7.20;99.90;;;9.13;66.43;97486.72;5033426;28;20046;-61
2023/12/09 02:01:53;;;;;;;7.10;3.97;;;7.30;99.90;;;9.14;65.75;97491.03;5032099;28;20060;-61
2023/12/09 02:04:21;;;;;;;8.40;3.93;;;7.30;99.90;;;9.12;65.73;97493.03;5032626;28;20056;-61
2023/12/09 02:06:49;;;;;;;25.53;9.50;;;7.30;99.90;;;9.09;66.08;97493.31;5024113;28;20049;-61
2023/12/09 02:09:18;;;;;;;8.73;4.53;;;7.30;99.90;;;9.09;65.87;97499.47;5033392;28;20413;-60
2023/12/09 02:11:53;;;;;;;11.43;4.80;;;7.30;99.90;;;9.05;65.78;97493.66;5033109;28;20041;-60
2023/12/09 02:14:39;;;;;;;9.37;4.07;;;7.20;99.90;;;9.07;65.88;97489.00;5031968;28;20432;-60
2023/12/09 02:17:25;;;;;;;6.13;4.30;;;7.30;99.90;;;9.07;65.79;97491.66;5015790;28;20045;-60
2023/12/09 02:19:53;;;;;;;9.90;4.13;;;7.20;99.90;;;9.06;65.80;97484.69;5025734;28;20052;-60
2023/12/09 02:22:21;;;;;;;5.90;3.50;;;7.20;99.90;;;9.06;66.07;97483.84;5032266;28;20045;-60
2023/12/09 02:24:49;;;;;;;7.70;4.03;;;7.20;99.90;;;9.07;66.00;97469.56;5024926;28;20528;-60
2023/12/09 02:27:27;;;;;;;10.17;4.07;;;7.20;99.90;;;9.07;65.71;97466.91;5031925;28;20064;-60
2023/12/09 02:30:27;;;;;;;14.03;3.80;;;7.20;99.70;;;9.05;65.75;97468.91;5031901;28;20041;-59
2023/12/09 02:32:58;;;;;;;7.17;3.30;;;7.20;99.90;;;9.04;66.03;97462.75;5023839;28;20049;-62
2023/12/09 02:35:29;;;;;;;10.17;3.53;;;7.20;99.90;;;9.04;65.30;97467.25;5014750;28;20045;-62
2023/12/09 02:37:58;;;;;;;11.27;3.47;;;7.20;99.90;;;9.05;66.27;97469.75;5031740;28;20049;-61
2023/12/09 02:40:26;;;;;;;10.53;4.50;;;7.20;99.90;;;9.06;65.95;97457.28;5033615;28;20049;-62
2023/12/09 02:42:55;;;;;;;7.13;3.47;;;7.20;99.90;;;9.07;65.77;97458.94;5032477;28;20053;-62
2023/12/09 02:45:22;;;;;;;11.10;3.70;;;7.20;99.90;;;9.03;65.77;97458.44;5032516;28;20433;-62
2023/12/09 02:47:50;;;;;;;9.63;5.30;;;7.20;99.90;;;9.05;65.75;97463.59;5025111;28;20040;-62
2023/12/09 02:50:18;;;;;;;9.70;6.53;;;7.20;99.90;;;9.05;66.02;97450.31;5031345;28;20053;-60
2023/12/09 02:52:46;;;;;;;8.73;4.10;;;7.20;99.90;;;9.05;65.96;97442.34;5032500;28;20425;-60
2023/12/09 02:55:13;;;;;;;11.13;5.20;;;7.10;99.90;;;9.04;66.00;97436.19;5032566;28;20049;-60
2023/12/09 02:57:41;;;;;;;7.70;3.97;;;7.20;99.90;;;9.05;65.70;97439.69;5031807;28;20049;-59
2023/12/09 03:00:09;;;;;;;7.30;4.30;;;7.20;99.90;;;9.10;66.01;97431.25;5033020;28;20053;-60
2023/12/09 03:02:37;;;;;;;7.47;3.67;;;7.30;99.90;;;9.12;65.89;97429.28;5032166;28;20448;-60
2023/12/09 03:05:05;;;;;;;6.70;4.20;;;7.30;99.80;;;9.11;65.61;97422.28;5032403;28;20044;-60
2023/12/09 03:07:33;;;;;;;8.80;4.20;;;7.20;99.50;;;9.11;65.91;97420.50;5030137;28;20056;-59
2023/12/09 03:10:00;;;;;;;7.03;3.60;;;7.20;99.60;;;9.12;65.75;97422.13;5032191;28;20037;-59
2023/12/09 03:12:28;;;;;;;6.10;3.87;;;7.30;99.70;;;9.14;65.75;97422.00;5031939;28;20044;-60
2023/12/09 03:14:56;;;;;;;7.23;3.57;;;7.30;99.80;;;9.15;65.79;97418.31;5031890;28;20041;-60
2023/12/09 03:17:24;;;;;;;7.37;3.57;;;7.30;99.60;;;9.17;65.78;97406.56;5031848;28;20041;-59
2023/12/09 03:19:52;;;;;;;5.83;3.17;;;7.30;98.80;;;9.18;65.59;97408.22;5031883;28;20044;-60
2023/12/09 03:22:19;;;;;;;6.03;4.13;;;7.40;99.30;;;9.19;65.34;97398.44;5031247;28;20037;-59
2023/12/09 03:24:47;;;;;;;7.23;4.07;;;7.40;98.50;;;9.19;65.37;97395.78;5032082;28;20056;-60
2023/12/09 03:27:15;;;;;;;4.87;3.40;;;7.40;99.00;;;9.17;65.38;97400.41;5031206;28;20046;-60
2023/12/09 03:29:43;;;;;;;6.47;3.33;;;7.30;98.70;;;9.16;65.79;97402.25;5031579;28;20049;-60
2023/12/09 03:32:10;;;;;;;7.13;3.63;;;7.30;99.30;;;9.15;65.34;97399.75;5031665;28;20513;-60
2023/12/09 03:34:38;;;;;;;6.43;4.27;;;7.30;99.10;;;9.14;65.62;97400.75;5031721;28;20050;-60
2023/12/09 03:37:06;;;;;;;6.73;3.87;;;7.30;99.00;;;9.13;65.54;97397.25;5031437;28;20053;-60
2023/12/09 03:39:33;;;;;;;9.23;4.70;;;7.30;98.80;;;9.10;65.37;97394.91;5030193;28;20049;-60
2023/12/09 03:42:01;;;;;;;9.03;5.10;;;7.20;98.20;;;9.05;65.06;97391.88;5031208;28;20041;-59
2023/12/09 03:44:30;;;;;;;6.83;4.70;;;7.10;98.20;;;8.99;65.00;97392.53;5030450;28;20057;-60
2023/12/09 03:46:58;;;;;;;8.07;5.07;;;7.00;98.20;;;8.93;65.01;97385.19;5024147;28;20038;-60
2023/12/09 03:49:25;;;;;;;11.20;5.80;;;7.00;98.40;;;8.85;64.74;97385.97;5030286;28;20045;-60
2023/12/09 03:51:53;;;;;;;8.40;5.80;;;6.90;98.20;;;8.77;64.93;97392.06;5031357;28;20068;-60
2023/12/09 03:54:21;;;;;;;12.00;5.30;;;6.80;97.60;;;8.70;64.82;97398.16;5031373;28;20053;-60
2023/12/09 03:56:49;;;;;;;9.60;4.60;;;6.70;98.60;;;8.65;64.86;97402.09;5030812;28;20053;-60
2023/12/09 03:59:16;;;;;;;9.43;5.57;;;6.60;99.10;;;8.60;64.94;97395.59;5031041;28;20049;-60
2023/12/09 04:01:51;;;;;;;10.90;4.53;;;6.60;99.10;;;8.55;64.81;97395.22;5031123;28;20053;-60
2023/12/09 04:04:19;;;;;;;9.77;5.07;;;6.50;98.50;;;8.47;64.80;97399.50;5031244;28;20046;-60
2023/12/09 04:06:46;;;;;;;10.10;5.83;;;6.40;98.50;;;8.39;64.90;97395.88;5030722;28;20045;-60
2023/12/09 04:09:15;;;;;;;8.70;4.80;;;6.30;98.90;;;8.33;65.08;97399.97;5030776;28;20045;-60
2023/12/09 04:11:43;;;;;;;8.07;4.70;;;6.20;99.90;;;8.29;65.33;97396.81;5031070;28;20492;-60
2023/12/09 04:14:10;;;;;;;12.40;5.77;;;6.20;99.90;;;8.28;65.35;97396.97;5031400;28;20440;-61
2023/12/09 04:16:38;;;;;;;9.37;5.20;;;6.20;99.90;;;8.31;65.40;97398.47;5029410;28;20056;-61
2023/12/09 04:19:06;;;;;;;7.63;4.17;;;6.30;99.90;;;8.31;65.49;97393.19;5030050;28;20061;-61
2023/12/09 04:21:36;;;;;;;9.93;5.27;;;6.30;99.90;;;8.33;65.71;97401.81;5030612;28;20480;-60
2023/12/09 04:24:05;;;;;;;8.67;4.87;;;6.30;99.90;;;8.34;65.85;97398.19;5031237;28;20033;-60
2023/12/09 04:26:32;;;;;;;8.23;4.70;;;6.40;99.90;;;8.35;66.01;97413.09;5030885;28;20048;-61
2023/12/09 04:29:00;;;;;;;7.93;4.60;;;6.40;99.90;;;8.34;65.81;97403.50;5030899;28;20040;-61
2023/12/09 04:31:28;;;;;;;10.30;4.70;;;6.40;99.90;;;8.36;65.77;97409.47;5031172;28;20052;-61
2023/12/09 04:33:56;;;;;;;10.60;4.53;;;6.40;99.90;;;8.38;66.04;97408.31;5031012;28;20064;-61
2023/12/09 04:36:24;;;;;;;9.00;4.87;;;6.40;99.90;;;8.38;65.96;97405.69;5030573;28;20060;-61
2023/12/09 04:38:51;;;;;;;8.27;4.53;;;6.40;99.90;;;8.37;65.91;97403.16;5031300;28;20050;-60
2023/12/09 04:41:19;;;;;;;8.33;3.97;;;6.40;99.90;;;8.35;65.94;97400.66;5034972;28;20420;-60
2023/12/09 04:43:47;;;;;;;9.90;4.33;;;6.40;99.90;;;8.36;66.13;97410.31;5017423;28;20052;-60
2023/12/09 04:46:14;;;;;;;8.80;5.90;;;6.40;99.90;;;8.38;65.82;97403.03;5034987;28;20296;-61
2023/12/09 04:48:43;;;;;;;9.30;5.03;;;6.40;99.90;;;8.40;65.93;97416.97;5034987;28;20048;-60
2023/12/09 04:51:11;;;;;;;8.20;4.47;;;6.40;99.90;;;8.42;65.83;97409.72;5034641;28;20041;-61
2023/12/09 04:53:38;;;;;;;9.63;5.50;;;6.40;99.90;;;8.43;65.82;97422.00;5035220;28;20045;-60
2023/12/09 04:56:08;;;;;;;8.03;3.90;;;6.50;99.90;;;8.45;65.91;97414.72;5035287;28;20049;-62
2023/12/09 04:58:36;;;;;;;8.87;4.40;;;6.50;99.90;;;8.46;65.98;97421.69;5034011;28;20060;-61
2023/12/09 05:01:03;;;;;;;8.63;3.80;;;6.50;99.90;;;8.49;65.89;97409.91;5026648;28;20041;-61
2023/12/09 05:03:31;;;;;;;7.53;4.60;;;6.60;99.90;;;8.47;65.87;97406.59;5034697;28;20061;-61
2023/12/09 05:06:00;;;;;;;8.83;4.77;;;6.50;99.70;;;8.44;65.91;97398.97;5034030;28;20046;-61
2023/12/09 05:08:28;;;;;;;12.50;5.60;;;6.50;99.90;;;8.44;65.83;97397.13;5034534;28;20045;-61
2023/12/09 05:10:56;;;;;;;6.53;4.50;;;6.50;99.90;;;8.45;65.80;97398.81;5034245;28;20497;-61
2023/12/09 05:13:23;;;;;;;7.60;4.43;;;6.50;99.90;;;8.47;65.88;97388.03;5034434;28;20049;-61
2023/12/09 05:15:51;;;;;;;8.13;5.87;;;6.50;99.90;;;8.46;65.84;97392.50;5034065;28;20056;-62
2023/12/09 05:18:19;;;;;;;8.97;4.93;;;6.50;99.90;;;8.45;66.04;97385.53;5033044;28;20044;-62
2023/12/09 05:20:46;;;;;;;8.47;4.30;;;6.50;99.90;;;8.48;65.83;97379.09;5034124;28;20124;-62
2023/12/09 05:23:14;;;;;;;7.73;5.37;;;6.50;99.90;;;8.48;65.68;97387.88;5033258;28;20045;-61
2023/12/09 05:25:44;;;;;;;9.97;5.33;;;6.50;99.90;;;8.50;65.89;97371.81;5034145;28;20041;-61
2023/12/09 05:28:12;;;;;;;9.20;4.30;;;6.60;99.10;;;8.48;65.58;97366.66;5032904;28;20052;-61
2023/12/09 05:30:41;;;;;;;6.87;4.33;;;6.50;99.80;;;8.45;65.64;97371.44;5034116;28;20038;-61
2023/12/09 05:33:09;;;;;;;8.77;4.13;;;6.50;99.60;;;8.43;65.55;97376.06;5034025;28;20041;-61
2023/12/09 05:35:37;;;;;;;9.33;5.13;;;6.40;99.80;;;8.45;65.57;97366.97;5033728;28;20057;-61
2023/12/09 05:38:04;;;;;;;5.97;4.10;;;6.50;99.70;;;8.44;65.67;97357.34;5033752;28;20041;-62
2023/12/09 05:40:32;;;;;;;9.73;4.40;;;6.40;99.50;;;8.46;65.70;97360.66;5032760;28;20504;-61
2023/12/09 05:43:02;;;;;;;9.20;4.70;;;6.50;99.90;;;8.48;65.44;97360.53;5033722;28;20420;-62
2023/12/09 05:45:30;;;;;;;7.50;4.53;;;6.50;99.40;;;8.50;65.73;97355.06;5033616;28;20505;-61
2023/12/09 05:47:58;;;;;;;7.70;4.63;;;6.60;99.70;;;8.50;65.58;97352.41;5032411;28;20057;-61
2023/12/09 05:50:26;;;;;;;6.90;4.27;;;6.60;99.00;;;8.50;65.54;97352.41;5033537;28;20045;-61
2023/12/09 05:52:54;;;;;;;7.77;4.10;;;6.60;99.70;;;8.50;65.69;97363.84;5033505;28;20429;-61
2023/12/09 05:55:21;;;;;;;8.00;4.37;;;6.60;98.90;;;8.53;65.63;97352.06;5033299;28;20045;-61
2023/12/09 05:57:50;;;;;;;7.77;4.13;;;6.60;99.30;;;8.51;65.61;97354.91;5033624;28;20045;-61
2023/12/09 06:00:17;;;;;;;6.30;3.87;;;6.60;99.00;;;8.53;65.67;97368.00;5033232;28;20424;-61
2023/12/09 06:02:45;;;;;;;6.27;4.07;;;6.60;99.50;;;8.53;65.66;97366.19;5033540;28;20133;-60
2023/12/09 06:05:12;;;;;;;8.10;4.00;;;6.60;99.30;;;8.53;65.53;97352.94;5033597;28;20037;-61
2023/12/09 06:07:40;;;;;;;7.13;4.20;;;6.60;99.00;;;8.55;65.44;97361.56;5032977;28;20056;-61
2023/12/09 06:10:08;;;;;;;17.07;4.20;;;6.60;98.60;;;8.53;65.56;97355.59;5033245;28;20057;-61
2023/12/09 06:12:36;;;;;;;6.90;4.27;;;6.50;99.20;;;8.53;65.39;97357.38;5033228;28;20049;-61
2023/12/09 06:15:07;;;;;;;8.00;4.53;;;6.50;99.20;;;8.50;65.28;97358.53;5033020;28;20045;-60
2023/12/09 06:17:34;;;;;;;6.80;3.97;;;6.50;99.20;;;8.52;65.40;97355.75;5032825;28;20060;-60
2023/12/09 06:20:05;;;;;;;12.50;5.20;;;6.50;99.50;;;8.52;65.32;97350.44;5033101;28;20057;-59
2023/12/09 06:22:33;;;;;;;6.40;4.30;;;6.60;98.70;;;8.52;65.40;97350.44;5033615;28;20520;-60
2023/12/09 06:25:00;;;;;;;7.87;4.03;;;6.50;98.60;;;8.51;65.32;97346.97;5033129;28;20046;-60
2023/12/09 06:27:28;;;;;;;10.97;5.30;;;6.60;98.20;;;8.51;65.34;97343.44;5031506;28;20060;-60
2023/12/09 06:29:56;;;;;;;7.50;4.40;;;6.50;97.60;;;8.47;64.96;97341.13;5033065;28;20045;-61
2023/12/09 06:32:23;;;;;;;6.67;4.27;;;6.40;97.50;;;8.43;65.25;97339.78;5032835;28;20049;-61
2023/12/09 06:34:51;;;;;;;7.27;4.40;;;6.40;97.90;;;8.40;65.01;97329.44;5032896;28;20045;-61
2023/12/09 06:37:19;;;;;;;11.20;5.23;;;6.40;98.50;;;8.38;65.02;97336.72;5032658;28;20057;-61
2023/12/09 06:39:46;;;;;;;6.47;4.20;;;6.40;98.00;;;8.38;64.84;97344.66;5032750;28;20037;-61
2023/12/09 06:42:15;;;;;;;5.60;3.37;;;6.40;98.10;;;8.38;65.09;97343.84;5031311;28;20049;-61
2023/12/09 06:44:42;;;;;;;6.97;4.13;;;6.40;97.80;;;8.40;64.97;97334.72;5033206;28;20061;-61
2023/12/09 06:47:10;;;;;;;5.93;3.80;;;6.50;98.30;;;8.40;65.24;97336.56;5032089;28;20052;-61
2023/12/09 06:49:38;;;;;;;7.57;3.90;;;6.50;97.60;;;8.42;65.16;97332.78;5031282;28;20390;-62
2023/12/09 06:52:06;;;;;;;8.47;3.77;;;6.50;97.70;;;8.44;65.26;97332.63;5032444;28;20061;-60
2023/12/09 06:54:33;;;;;;;6.07;3.57;;;6.60;97.50;;;8.47;64.92;97325.19;5032393;28;20448;-60
2023/12/09 06:57:01;;;;;;;6.73;4.20;;;6.60;96.90;;;8.48;64.94;97318.91;5032005;28;20408;-60
2023/12/09 06:59:29;;;;;;;10.27;3.80;;;6.60;96.90;;;8.47;64.60;97329.66;5032441;28;20045;-60
2023/12/09 07:01:57;;;;;;;5.43;3.73;;;6.60;96.20;;;8.45;64.88;97328.97;5030172;28;20072;-61
2023/12/09 07:04:25;;;;;;;5.70;3.40;;;6.50;96.40;;;8.45;64.85;97331.63;5030969;28;20049;-61
2023/12/09 07:06:52;;;;;;;7.07;3.67;;;6.50;96.40;;;8.44;64.74;97328.16;5031693;28;20416;-61
2023/12/09 07:09:20;;;;;;;7.30;3.87;;;6.50;96.60;;;8.44;64.89;97325.50;5031864;28;20390;-60
2023/12/09 07:11:48;;;;;;;7.63;4.03;;;6.50;97.00;;;8.47;64.83;97321.69;5032062;28;20620;-60
2023/12/09 07:14:29;;;;;;;7.50;4.00;;;6.50;96.90;;;8.45;64.76;97326.31;5025876;28;20041;-60
2023/12/09 07:16:56;;;;;;;7.00;3.77;;;6.50;97.10;;;8.47;65.08;97322.56;5031637;28;20509;-60
2023/12/09 07:19:24;;;;;;;8.77;3.80;;;6.50;96.50;;;8.50;64.72;97328.53;5028389;28;20042;-60
2023/12/09 07:21:52;;;;;;;6.83;3.53;;;6.50;96.80;;;8.52;64.66;97338.00;5030538;28;20044;-60
2023/12/09 07:24:20;;;;;;;7.37;3.53;;;6.60;97.10;;;8.55;64.73;97342.13;5031559;28;20046;-60
2023/12/09 07:26:48;;;;;;;8.17;3.23;;;6.60;96.50;;;8.55;64.75;97339.50;5031620;28;20041;-56
2023/12/09 07:29:15;;;;;;;10.73;4.37;;;6.70;96.70;;;8.55;64.88;97335.03;5031730;28;20052;-56
2023/12/09 07:31:43;;;;;;;7.93;3.53;;;6.70;96.80;;;8.59;64.82;97336.38;5031821;28;20041;-55
2023/12/09 07:34:16;;;;;;;5.03;2.87;;;6.70;96.60;;;8.58;64.68;97336.53;5030177;28;20057;-57
2023/12/09 07:36:44;;;;;;;9.43;3.80;;;6.70;96.80;;;8.61;65.03;97337.06;5030379;28;20056;-57
2023/12/09 07:39:11;;;;;;;8.33;3.40;;;6.70;96.70;;;8.64;64.73;97339.38;5030324;28;20046;-56
2023/12/09 07:41:41;;;;;;;5.53;3.60;;;6.80;96.30;;;8.66;64.78;97342.72;5032086;28;20421;-57
2023/12/09 07:44:09;;;;;;;7.87;3.50;;;6.80;96.30;;;8.68;64.75;97331.94;5014662;28;20065;-57
2023/12/09 07:46:37;;;;;;;9.80;3.87;;;6.80;96.50;;;8.68;64.96;97331.94;5031243;28;20045;-57
2023/12/09 07:49:04;;;;;;;5.00;2.60;;;6.80;96.40;;;8.69;64.79;97328.31;5031609;28;20045;-57
2023/12/09 07:51:33;;;;;;;4.60;2.53;;;6.80;96.60;;;8.72;64.50;97322.69;5031638;28;20052;-57
2023/12/09 07:54:01;;;;;;;5.47;3.10;;;6.80;96.10;;;8.75;64.57;97334.81;5030123;28;20045;-56
2023/12/09 07:56:29;;;;;;;6.67;3.80;;;6.80;95.60;;;8.75;64.55;97335.66;5030923;28;20056;-56
2023/12/09 07:58:57;;;;;;;5.67;3.20;;;6.90;95.70;;;8.75;64.67;97327.69;5031347;28;20041;-55
2023/12/09 08:01:26;;;;;;;5.03;3.20;;;6.90;94.90;;;8.76;64.49;97326.72;5031344;28;20524;-55
2023/12/09 08:03:54;;;;;;;4.67;2.63;;;6.90;94.80;;;8.77;64.42;97316.91;5029763;28;20052;-56
2023/12/09 08:06:22;;;;;;;6.90;3.40;;;6.90;94.30;;;8.78;64.31;97315.91;5030773;28;20053;-56
2023/12/09 08:08:50;;;;;;;5.93;3.10;;;6.90;94.70;;;8.79;64.50;97305.16;5030470;28;20521;-56
2023/12/09 08:11:19;;;;;;;5.97;3.63;;;6.90;94.60;;;8.83;64.35;97303.00;5030997;28;20046;-56
2023/12/09 08:13:47;;;;;;;7.93;4.77;;;7.00;94.50;;;8.84;64.38;97305.50;5031013;28;20405;-56
2023/12/09 08:16:14;;;;;;;6.50;3.27;;;7.10;93.60;;;8.87;64.15;97307.00;5030732;28;20053;-56
2023/12/09 08:18:42;;;;;;;4.97;2.67;;;7.10;93.30;;;8.87;64.31;97305.19;5030904;28;20045;-57
2023/12/09 08:21:10;;;;;;;8.60;3.47;;;7.10;93.20;;;8.87;64.20;97310.47;5030797;28;20389;-56
2023/12/09 08:23:38;;;;;;;7.53;3.00;;;7.10;93.20;;;8.89;64.10;97305.03;5031046;28;20052;-55
2023/12/09 08:26:06;;;;;;;5.00;2.47;;;7.10;91.40;;;8.84;63.46;97305.50;5029280;28;20049;-56
2023/12/09 08:28:34;;;;;;;4.00;2.60;;;6.90;91.10;;;8.83;63.65;97311.78;5029474;28;20053;-56
2023/12/09 08:31:04;;;;;;;4.33;2.23;;;6.90;91.50;;;8.74;63.50;97301.28;5030466;28;20049;-55
2023/12/09 08:33:31;;;;;;;6.17;2.57;;;6.80;91.70;;;8.75;63.74;97295.00;5030923;28;20056;-58
2023/12/09 08:35:59;;;;;;;4.87;2.27;;;6.80;92.20;;;8.70;63.40;97281.38;5030343;28;20397;-58
2023/12/09 08:38:27;;;;;;;4.03;3.03;;;6.80;92.10;;;8.71;63.49;97294.50;5029606;28;20523;-53
2023/12/09 08:40:54;;;;;;;4.20;2.90;;;6.80;92.00;;;8.77;63.73;97287.72;5029527;28;20049;-56
2023/12/09 08:43:22;;;;;;;5.17;2.50;;;6.90;92.00;;;8.78;63.55;97289.38;5030534;28;20056;-54
2023/12/09 08:45:50;;;;;;;6.07;2.23;;;6.90;91.70;;;8.82;63.50;97296.03;5030337;28;20049;-55
2023/12/09 08:48:17;;;;;;;4.90;2.23;;;7.00;91.60;;;8.85;63.41;97304.50;5030257;28;20405;-56
2023/12/09 08:50:45;;;;;;;4.47;3.27;;;7.00;91.00;;;8.88;63.36;97311.34;5030626;28;20588;-56
2023/12/09 08:53:13;;;;;;;4.30;2.60;;;7.10;91.20;;;8.89;63.31;97306.84;5030330;28;20049;-56
2023/12/09 08:55:41;;;;;;;3.27;2.30;;;7.10;90.70;;;8.89;63.22;97307.69;5029203;28;20049;-54
2023/12/09 08:58:08;;;;;;;4.20;2.43;;;7.10;90.00;;;8.86;63.67;97300.88;5029137;28;20520;-55
2023/12/09 09:00:36;;;;;;;7.67;4.07;;;7.10;90.80;;;8.90;63.29;97297.88;5030447;28;20045;-56
2023/12/09 09:03:04;;;;;;;7.93;5.30;;;7.10;90.20;;;8.86;63.24;97282.28;5028947;28;20501;-56
2023/12/09 09:05:31;;;;;;;11.10;3.80;;;7.10;90.10;;;8.90;63.05;97287.25;5030067;28;20050;-56
2023/12/09 09:07:59;;;;;;;7.00;3.90;;;7.10;91.40;;;8.94;63.21;97283.31;5030653;28;20101;-54
2023/12/09 09:10:27;;;;;;;10.73;4.13;;;7.10;90.70;;;8.97;63.29;97280.34;5022397;28;20413;-57
2023/12/09 09:12:54;;;;;;;6.10;3.33;;;7.10;90.60;;;8.98;62.87;97266.09;5030468;28;20049;-54
2023/12/09 09:15:22;;;;;;;4.27;2.63;;;7.10;90.20;;;9.01;63.08;97263.09;5030181;28;20048;-55
2023/12/09 09:17:51;;;;;;;5.13;2.93;;;7.20;90.70;;;9.05;62.97;97265.28;5030884;28;20044;-55
2023/12/09 09:20:18;;;;;;;4.20;2.43;;;7.20;90.40;;;9.04;63.07;97266.25;5030196;28;20049;-53
2023/12/09 09:22:47;;;;;;;4.80;2.60;;;7.20;89.20;;;9.05;62.73;97265.28;5030509;28;20037;-54
2023/12/09 09:25:17;;;;;;;5.87;3.03;;;7.20;89.00;;;9.08;62.71;97266.78;5032422;28;20041;-56
2023/12/09 09:27:45;;;;;;;4.27;3.37;;;7.20;90.30;;;9.12;62.96;97267.28;5033389;28;20045;-55
2023/12/09 09:30:13;;;;;;;5.97;2.80;;;7.30;89.80;;;9.15;62.77;97269.59;5034016;28;20041;-55
2023/12/09 09:32:41;;;;;;;4.40;3.07;;;7.40;89.30;;;9.20;62.67;97267.31;5033808;28;20049;-57
2023/12/09 09:35:09;;;;;;;5.97;3.37;;;7.50;89.30;;;9.24;62.95;97248.22;5033735;28;20045;-56
2023/12/09 09:37:36;;;;;;;6.63;3.00;;;7.50;89.00;;;9.29;62.74;97244.25;5034096;28;20041;-56
2023/12/09 09:40:05;;;;;;;5.83;2.97;;;7.60;88.70;;;9.29;62.74;97242.44;5033448;28;20285;-55
2023/12/09 09:42:33;;;;;;;5.93;2.83;;;7.60;88.20;;;9.30;62.64;97240.59;5034290;28;20053;-54
2023/12/09 09:45:23;;;;;;;5.60;3.40;;;7.60;87.80;;;9.28;62.63;97246.06;5034065;28;20185;-56
2023/12/09 09:47:59;;;;;;;4.83;3.17;;;7.60;88.10;;;9.29;62.57;97244.25;5028297;28;20041;-56
2023/12/09 09:50:27;;;;;;;4.57;3.03;;;7.60;88.40;;;9.30;62.27;97232.63;5033399;28;20052;-56
2023/12/09 09:52:55;;;;;;;6.07;3.13;;;7.60;87.60;;;9.26;62.12;97237.44;5033428;28;20041;-55
2023/12/09 09:55:25;;;;;;;4.53;3.20;;;7.50;87.30;;;9.27;62.08;97233.78;5031991;28;20046;-56
2023/12/09 09:57:53;;;;;;;4.57;3.07;;;7.50;87.70;;;9.27;61.94;97226.66;5032400;28;20472;-56
2023/12/09 10:00:21;;;;;;;6.57;3.50;;;7.60;87.50;;;9.32;62.42;97220.00;5033338;28;20054;-54
2023/12/09 10:02:53;;;;;;;4.80;2.97;;;7.60;87.50;;;9.32;62.14;97228.81;5033081;28;20038;-56
2023/12/09 10:05:24;;;;;;;5.13;3.70;;;7.70;87.30;;;9.35;62.32;97211.72;5032776;28;20525;-56
2023/12/09 10:07:53;;;;;;;4.67;3.07;;;7.70;86.80;;;9.36;61.93;97226.66;5033629;28;20045;-55
2023/12/09 10:10:21;;;;;;;6.73;3.47;;;7.70;87.00;;;9.39;62.16;97213.88;5032989;28;20417;-54
2023/12/09 10:12:48;;;;;;;5.63;3.50;;;7.70;86.30;;;9.42;62.12;97202.09;5032050;28;20044;-56
2023/12/09 10:15:16;;;;;;;6.33;3.50;;;7.70;86.60;;;9.41;62.00;97182.66;5033549;28;20424;-56
2023/12/09 10:17:44;;;;;;;4.73;3.40;;;7.80;86.40;;;9.41;61.61;97174.69;5032527;28;20536;-56
2023/12/09 10:20:12;;;;;;;5.63;4.13;;;7.70;86.30;;;9.41;61.71;97172.03;5028761;28;20049;-54
2023/12/09 10:22:39;;;;;;;5.90;2.93;;;7.80;86.60;;;9.42;61.61;97163.09;5031846;28;20053;-55
2023/12/09 10:25:08;;;;;;;8.57;3.60;;;7.80;86.20;;;9.48;62.04;97164.25;5033045;28;20072;-56
2023/12/09 10:27:41;;;;;;;5.60;3.40;;;7.80;86.80;;;9.51;61.46;97169.22;5032423;28;20038;-55
2023/12/09 10:30:10;;;;;;;4.68;3.17;;;7.90;86.50;;;9.53;61.73;97177.03;5031736;28;20065;-57
2023/12/09 10:32:38;;;;;;;4.10;2.80;;;7.80;85.90;;;9.54;61.69;97162.72;5031743;28;20042;-55
2023/12/09 10:35:06;;;;;;;5.50;3.07;;;7.90;86.10;;;9.57;61.46;97159.75;5031310;28;20041;-56